Middletown, OH

10:32 PM EST on November 20, 2017 (GMT -0500)
Hook Field Municipal

Weather History for KMWO - January, 2013

Change the Weather History Date:

Tuesday, January 8, 2013

  Actual Average (KFFO) Record (KFFO)
Temperature  
Mean Temperature 33 °F -  
Max Temperature 47 °F 35 °F 62 °F (2008)
Min Temperature 19 °F 20 °F -7 °F (2015)
Degree Days  
Heating Degree Days 32    
Moisture  
Dew Point 27 °F    
Average Humidity 92    
Maximum Humidity 100    
Minimum Humidity 64    
Precipitation  
Precipitation 0.00 in - - ()
Sea Level Pressure  
Sea Level Pressure 30.28 in    
Wind  
Wind Speed 1 mph (SW)    
Max Wind Speed 6 mph    
Max Gust Speed -    
Visibility 7 miles    
Events Fog    
Averages and records for this station are not official NWS values.
T = Trace of Precipitation, MM = Missing Value Source: NWS Daily Summary

Daily Weather History Graph

Daily Weather History Graph

Search for Another Location

Airport or City:

Trip Planner

Search our weather history database for the weather conditions in past years. The results will help you decide how hot, cold, wet, or windy it might be!

Date:

Astronomy

Jan. 08, 2013 Rise Set
Actual Time 7:58 AM EST 5:31 PM EST
Civil Twilight 7:28 AM EST 6:01 PM EST
Nautical Twilight 6:54 AM EST 6:34 PM EST
Astronomical Twilight 6:22 AM EST 7:06 PM EST
Moon 4:30 AM EST (1/8) 2:32 PM EST (1/8)
Length of Visible Light 10h 32m
Length of Day
9h 33m
Waning Crescent, 14% of the Moon is Illuminated
Jan 8
Waning Crescent
Jan 11
New
Jan 18
First Quarter
Jan 26
Full
Feb 3
Last Quarter

Hourly Weather History & Observations

Time (EST) Temp. Windchill Dew Point Humidity Pressure Visibility Wind Dir Wind Speed Gust Speed Precip Events Conditions
12:15 AM 22.8 °F - 22.8 °F 100% 30.28 in 5.0 mi Calm Calm - N/A   Clear
12:35 AM 22.8 °F - 22.8 °F 100% 30.26 in 5.0 mi Calm Calm - N/A   Clear
12:55 AM 22.8 °F - 22.8 °F 100% 30.25 in 4.0 mi Calm Calm - N/A   Clear
1:15 AM 20.5 °F - 20.5 °F 100% 30.23 in 0.5 mi Calm Calm - N/A Fog Light Freezing Fog
1:35 AM 19.0 °F - 19.0 °F 100% 30.24 in 0.2 mi Calm Calm - N/A Fog Light Freezing Fog
1:55 AM 20.3 °F - 20.3 °F 100% 30.24 in 1.5 mi Calm Calm - N/A   Mist
2:15 AM 19.6 °F - 19.6 °F 100% 30.25 in 2.5 mi Calm Calm - N/A   Clear
2:35 AM 20.3 °F - 20.3 °F 100% 30.26 in 4.0 mi Calm Calm - N/A   Clear
2:55 AM 19.9 °F 14.9 °F 19.9 °F 100% 30.27 in 3.0 mi SW 3.5 mph - N/A   Clear
3:15 AM 21.6 °F - 21.6 °F 100% 30.27 in 5.0 mi Calm Calm - N/A   Clear
3:35 AM 20.8 °F - 20.8 °F 100% 30.28 in 4.0 mi Calm Calm - N/A   Clear
3:55 AM 20.3 °F - 20.3 °F 100% 30.27 in 5.0 mi Calm Calm - N/A   Clear
4:15 AM 20.3 °F - 20.3 °F 100% 30.27 in 5.0 mi Calm Calm - N/A   Clear
4:35 AM 19.4 °F - 19.4 °F 100% 30.27 in 5.0 mi Calm Calm - N/A   Clear
4:55 AM 19.4 °F - 19.4 °F 100% 30.27 in 5.0 mi Calm Calm - N/A   Clear
5:15 AM 19.2 °F - 19.2 °F 100% 30.27 in 3.0 mi Calm Calm - N/A   Clear
5:35 AM 20.3 °F - 20.3 °F 100% 30.28 in 2.5 mi Calm Calm - N/A   Clear
5:55 AM 19.4 °F - 19.4 °F 100% 30.28 in 3.0 mi Calm Calm - N/A   Clear
6:15 AM 20.1 °F - 20.1 °F 100% 30.29 in 0.8 mi Calm Calm - N/A   Mist
6:35 AM 20.3 °F - 20.3 °F 100% 30.30 in 3.0 mi Calm Calm - N/A   Clear
6:55 AM 20.1 °F - 20.1 °F 100% 30.30 in 4.0 mi Calm Calm - N/A   Clear
7:15 AM 21.6 °F - 21.6 °F 100% 30.29 in 4.0 mi Calm Calm - N/A   Clear
7:35 AM 19.6 °F 13.0 °F 19.6 °F 100% 30.29 in 4.0 mi West 4.6 mph - N/A   Clear
7:55 AM 20.3 °F 13.8 °F 20.3 °F 100% 30.30 in 5.0 mi WSW 4.6 mph - N/A   Clear
8:35 AM 22.8 °F 16.7 °F 22.8 °F 100% 30.32 in 4.0 mi SW 4.6 mph - N/A   Clear
9:15 AM 25.3 °F 21.1 °F 25.3 °F 100% 30.32 in 5.0 mi WSW 3.5 mph - N/A   Clear
9:35 AM 27.1 °F 23.2 °F 27.1 °F 100% 30.33 in 5.0 mi WSW 3.5 mph - N/A   Clear
9:55 AM 27.9 °F - 27.9 °F 100% 30.34 in 5.0 mi Calm Calm - N/A   Clear
10:15 AM 27.9 °F - 27.9 °F 100% 30.34 in 5.0 mi Calm Calm - N/A   Clear
10:35 AM 30.2 °F - 30.2 °F 100% 30.33 in 7.0 mi Calm Calm - N/A   Clear
10:55 AM 32.5 °F 29.3 °F 31.1 °F 94% 30.33 in 7.0 mi WSW 3.5 mph - N/A   Clear
11:15 AM 32.7 °F - 30.2 °F 90% 30.33 in 10.0 mi Calm Calm - N/A   Clear
11:35 AM 35.1 °F 32.2 °F 31.6 °F 87% 30.32 in 10.0 mi WSW 3.5 mph - N/A   Clear
11:55 AM 35.8 °F 33.0 °F 31.5 °F 84% 30.31 in 10.0 mi SW 3.5 mph - N/A   Clear
12:15 PM 37.6 °F 35.1 °F 32.0 °F 80% 30.30 in 10.0 mi SSW 3.5 mph - N/A   Clear
12:35 PM 38.8 °F - 32.2 °F 77% 30.30 in 10.0 mi Calm Calm - N/A   Clear
12:55 PM 38.8 °F 34.6 °F 32.7 °F 79% 30.29 in 10.0 mi SW 5.8 mph - N/A   Clear
1:15 PM 40.1 °F 36.1 °F 32.7 °F 75% 30.28 in 10.0 mi SSW 5.8 mph - N/A   Clear
1:35 PM 40.6 °F 37.5 °F 32.5 °F 73% 30.27 in 10.0 mi SSW 4.6 mph - N/A   Clear
1:55 PM 41.0 °F 39.0 °F 33.1 °F 73% 30.27 in 10.0 mi SW 3.5 mph - N/A   Clear
2:15 PM 41.9 °F 38.2 °F 33.3 °F 71% 30.27 in 10.0 mi SW 5.8 mph - N/A   Clear
2:55 PM 47.7 °F - 36.1 °F 64% 30.27 in 10.0 mi Calm Calm - N/A   Clear
3:15 PM 47.1 °F - 36.3 °F 66% 30.27 in 10.0 mi SW 4.6 mph - N/A   Clear
3:35 PM 47.7 °F - 36.3 °F 65% 30.26 in 10.0 mi SW 5.8 mph - N/A   Clear
4:15 PM 47.7 °F - 36.9 °F 66% 30.27 in 10.0 mi SW 5.8 mph - N/A   Clear
4:35 PM 47.3 °F - 36.7 °F 67% 30.26 in 10.0 mi SSW 5.8 mph - N/A   Clear
4:55 PM 47.7 °F - 36.1 °F 64% 30.26 in 10.0 mi South 4.6 mph - N/A   Clear
5:15 PM 43.2 °F 41.5 °F 34.2 °F 71% 30.26 in 10.0 mi WSW 3.5 mph - N/A   Clear
5:35 PM 45.1 °F - 35.8 °F 70% 30.26 in 10.0 mi Calm Calm - N/A   Clear
5:55 PM 36.1 °F - 32.4 °F 86% 30.26 in 10.0 mi Calm Calm - N/A   Clear
6:15 PM 35.2 °F - 32.4 °F 89% 30.26 in 10.0 mi Calm Calm - N/A   Clear
6:35 PM 35.1 °F - 32.5 °F 91% 30.27 in 10.0 mi Calm Calm - N/A   Clear
6:55 PM 32.5 °F - 31.3 °F 95% 30.28 in 10.0 mi Calm Calm - N/A   Clear
7:15 PM 32.5 °F - 31.8 °F 97% 30.28 in 10.0 mi Calm Calm - N/A   Clear
7:35 PM 32.5 °F 29.3 °F 32.0 °F 98% 30.27 in 10.0 mi North 3.5 mph - N/A   Clear
7:55 PM 32.5 °F - 32.0 °F 98% 30.27 in 10.0 mi Calm Calm - N/A   Clear
8:15 PM 32.5 °F - 32.0 °F 98% 30.27 in 10.0 mi Calm Calm - N/A   Clear
8:35 PM 32.2 °F - 32.0 °F 99% 30.27 in 10.0 mi Calm Calm - N/A   Clear
8:55 PM 30.2 °F - 30.2 °F 100% 30.26 in 10.0 mi Calm Calm - N/A   Clear
9:15 PM 28.9 °F - 28.9 °F 100% 30.26 in 10.0 mi Calm Calm - N/A   Clear
9:35 PM 28.2 °F - 28.2 °F 100% 30.25 in 10.0 mi Calm Calm - N/A   Clear
9:55 PM 27.9 °F - 27.9 °F 100% 30.25 in 10.0 mi Calm Calm - N/A   Clear
10:15 PM 27.9 °F - 27.9 °F 100% 30.25 in 10.0 mi Calm Calm - N/A   Clear
10:35 PM 27.9 °F - 27.9 °F 100% 30.25 in 10.0 mi Calm Calm - N/A   Clear
10:55 PM 27.9 °F - 27.9 °F 100% 30.24 in 7.0 mi Calm Calm - N/A   Clear
11:15 PM 27.9 °F - 27.9 °F 100% 30.25 in 7.0 mi Calm Calm - N/A   Clear
11:35 PM 27.9 °F - 27.9 °F 100% 30.25 in 7.0 mi Calm Calm - N/A   Clear
11:55 PM 27.9 °F - 27.9 °F 100% 30.25 in 7.0 mi Calm Calm - N/A   Clear